sensor_id;sensor_type;location;lat;lon;timestamp;temperature;humidity
3816;DHT22;1923;48.154;11.536;2023-04-24T00:01:07;12.40;99.90
3816;DHT22;1923;48.154;11.536;2023-04-24T00:03:36;12.40;99.90
3816;DHT22;1923;48.154;11.536;2023-04-24T00:06:06;12.30;99.90
3816;DHT22;1923;48.154;11.536;2023-04-24T00:08:35;12.20;99.90
3816;DHT22;1923;48.154;11.536;2023-04-24T00:11:03;12.20;99.90
3816;DHT22;1923;48.154;11.536;2023-04-24T00:13:33;12.10;99.90
3816;DHT22;1923;48.154;11.536;2023-04-24T00:16:01;12.10;99.90
3816;DHT22;1923;48.154;11.536;2023-04-24T00:18:29;12.00;99.90
3816;DHT22;1923;48.154;11.536;2023-04-24T00:20:57;11.90;99.90
3816;DHT22;1923;48.154;11.536;2023-04-24T00:23:25;11.90;99.90
3816;DHT22;1923;48.154;11.536;2023-04-24T00:25:53;11.80;99.90
3816;DHT22;1923;48.154;11.536;2023-04-24T00:28:21;11.80;99.90
3816;DHT22;1923;48.154;11.536;2023-04-24T00:30:51;11.80;99.90
3816;DHT22;1923;48.154;11.536;2023-04-24T00:33:19;11.80;99.90
3816;DHT22;1923;48.154;11.536;2023-04-24T00:36:01;11.70;99.90
3816;DHT22;1923;48.154;11.536;2023-04-24T00:38:30;11.70;99.90
3816;DHT22;1923;48.154;11.536;2023-04-24T00:40:58;11.70;99.90
3816;DHT22;1923;48.154;11.536;2023-04-24T00:43:51;11.80;99.90
3816;DHT22;1923;48.154;11.536;2023-04-24T00:46:21;11.70;99.90
3816;DHT22;1923;48.154;11.536;2023-04-24T00:48:49;11.60;99.90
3816;DHT22;1923;48.154;11.536;2023-04-24T00:51:18;11.70;99.90
3816;DHT22;1923;48.154;11.536;2023-04-24T00:54:16;11.80;99.90
3816;DHT22;1923;48.154;11.536;2023-04-24T00:56:48;11.80;99.90
3816;DHT22;1923;48.154;11.536;2023-04-24T00:59:25;11.80;99.90
3816;DHT22;1923;48.154;11.536;2023-04-24T01:01:54;11.70;99.90
3816;DHT22;1923;48.154;11.536;2023-04-24T01:04:41;11.70;99.90
3816;DHT22;1923;48.154;11.536;2023-04-24T01:07:25;11.70;99.90
3816;DHT22;1923;48.154;11.536;2023-04-24T01:10:25;11.80;99.90
3816;DHT22;1923;48.154;11.536;2023-04-24T01:13:32;11.80;99.90
3816;DHT22;1923;48.154;11.536;2023-04-24T01:16:21;11.80;99.90
3816;DHT22;1923;48.154;11.536;2023-04-24T01:19:19;11.80;99.90
3816;DHT22;1923;48.154;11.536;2023-04-24T01:21:47;11.80;99.90
3816;DHT22;1923;48.154;11.536;2023-04-24T01:24:37;11.70;99.90
3816;DHT22;1923;48.154;11.536;2023-04-24T01:27:19;11.70;99.90
3816;DHT22;1923;48.154;11.536;2023-04-24T01:29:50;11.70;99.90
3816;DHT22;1923;48.154;11.536;2023-04-24T01:32:53;11.80;99.90
3816;DHT22;1923;48.154;11.536;2023-04-24T01:35:35;11.70;99.90
3816;DHT22;1923;48.154;11.536;2023-04-24T01:38:24;11.60;99.90
3816;DHT22;1923;48.154;11.536;2023-04-24T01:41:07;11.70;99.90
3816;DHT22;1923;48.154;11.536;2023-04-24T01:44:16;11.70;99.90
3816;DHT22;1923;48.154;11.536;2023-04-24T01:47:01;11.70;99.90
3816;DHT22;1923;48.154;11.536;2023-04-24T01:50:01;11.60;99.90
3816;DHT22;1923;48.154;11.536;2023-04-24T01:52:52;11.70;99.90
3816;DHT22;1923;48.154;11.536;2023-04-24T01:55:38;11.60;99.90
3816;DHT22;1923;48.154;11.536;2023-04-24T01:58:08;11.60;99.90
3816;DHT22;1923;48.154;11.536;2023-04-24T02:00:36;11.60;99.90
3816;DHT22;1923;48.154;11.536;2023-04-24T02:03:22;11.50;99.90
3816;DHT22;1923;48.154;11.536;2023-04-24T02:06:14;11.50;99.90
3816;DHT22;1923;48.154;11.536;2023-04-24T02:08:42;11.50;99.90
3816;DHT22;1923;48.154;11.536;2023-04-24T02:11:59;11.40;99.90
3816;DHT22;1923;48.154;11.536;2023-04-24T02:14:29;11.50;99.90
3816;DHT22;1923;48.154;11.536;2023-04-24T02:17:15;11.50;99.90
3816;DHT22;1923;48.154;11.536;2023-04-24T02:19:44;11.50;99.90
3816;DHT22;1923;48.154;11.536;2023-04-24T02:22:51;11.60;99.90
3816;DHT22;1923;48.154;11.536;2023-04-24T02:25:47;11.50;99.90
3816;DHT22;1923;48.154;11.536;2023-04-24T02:28:30;11.50;99.90
3816;DHT22;1923;48.154;11.536;2023-04-24T02:30:59;11.60;99.90
3816;DHT22;1923;48.154;11.536;2023-04-24T02:33:43;11.50;99.90
3816;DHT22;1923;48.154;11.536;2023-04-24T02:36:11;11.60;99.90
3816;DHT22;1923;48.154;11.536;2023-04-24T02:38:54;11.60;99.90
3816;DHT22;1923;48.154;11.536;2023-04-24T02:41:30;11.50;99.90
3816;DHT22;1923;48.154;11.536;2023-04-24T02:44:12;11.60;99.90
3816;DHT22;1923;48.154;11.536;2023-04-24T02:46:56;11.70;99.90
3816;DHT22;1923;48.154;11.536;2023-04-24T02:49:45;11.60;99.90
3816;DHT22;1923;48.154;11.536;2023-04-24T02:52:24;11.60;99.90
3816;DHT22;1923;48.154;11.536;2023-04-24T02:55:07;11.50;99.90
3816;DHT22;1923;48.154;11.536;2023-04-24T02:57:35;11.50;99.90
3816;DHT22;1923;48.154;11.536;2023-04-24T03:00:33;11.60;99.90
3816;DHT22;1923;48.154;11.536;2023-04-24T03:03:37;11.50;99.90
3816;DHT22;1923;48.154;11.536;2023-04-24T03:06:21;11.40;99.90
3816;DHT22;1923;48.154;11.536;2023-04-24T03:08:59;11.40;99.90
3816;DHT22;1923;48.154;11.536;2023-04-24T03:11:27;11.40;99.90
3816;DHT22;1923;48.154;11.536;2023-04-24T03:13:57;11.30;99.90
3816;DHT22;1923;48.154;11.536;2023-04-24T03:16:43;11.30;99.90
3816;DHT22;1923;48.154;11.536;2023-04-24T03:19:27;11.30;99.90
3816;DHT22;1923;48.154;11.536;2023-04-24T03:22:18;11.30;99.90
3816;DHT22;1923;48.154;11.536;2023-04-24T03:24:46;11.30;99.90
3816;DHT22;1923;48.154;11.536;2023-04-24T03:27:29;11.30;99.90
3816;DHT22;1923;48.154;11.536;2023-04-24T03:30:01;11.30;99.90
3816;DHT22;1923;48.154;11.536;2023-04-24T03:32:38;11.30;99.90
3816;DHT22;1923;48.154;11.536;2023-04-24T03:35:39;11.40;99.90
3816;DHT22;1923;48.154;11.536;2023-04-24T03:38:07;11.30;99.90
3816;DHT22;1923;48.154;11.536;2023-04-24T03:40:36;11.40;99.90
3816;DHT22;1923;48.154;11.536;2023-04-24T03:43:04;11.20;99.90
3816;DHT22;1923;48.154;11.536;2023-04-24T03:45:53;11.20;99.90
3816;DHT22;1923;48.154;11.536;2023-04-24T03:48:36;11.30;99.90
3816;DHT22;1923;48.154;11.536;2023-04-24T03:51:05;11.20;99.90
3816;DHT22;1923;48.154;11.536;2023-04-24T03:54:01;11.10;99.90
3816;DHT22;1923;48.154;11.536;2023-04-24T03:56:31;11.00;99.90
3816;DHT22;1923;48.154;11.536;2023-04-24T03:59:20;11.00;99.90
3816;DHT22;1923;48.154;11.536;2023-04-24T04:02:04;11.00;99.90
3816;DHT22;1923;48.154;11.536;2023-04-24T04:04:34;11.00;99.90
3816;DHT22;1923;48.154;11.536;2023-04-24T04:08:09;11.00;99.90
3816;DHT22;1923;48.154;11.536;2023-04-24T04:10:54;10.90;99.90
3816;DHT22;1923;48.154;11.536;2023-04-24T04:13:22;10.90;99.90
3816;DHT22;1923;48.154;11.536;2023-04-24T04:15:50;10.90;99.90
3816;DHT22;1923;48.154;11.536;2023-04-24T04:18:34;11.00;99.90
3816;DHT22;1923;48.154;11.536;2023-04-24T04:21:21;11.10;99.90
3816;DHT22;1923;48.154;11.536;2023-04-24T04:24:05;11.10;99.90
3816;DHT22;1923;48.154;11.536;2023-04-24T04:26:33;11.10;99.90
3816;DHT22;1923;48.154;11.536;2023-04-24T04:29:28;11.10;99.90
3816;DHT22;1923;48.154;11.536;2023-04-24T04:32:25;11.00;99.90
3816;DHT22;1923;48.154;11.536;2023-04-24T04:34:55;11.00;99.90
3816;DHT22;1923;48.154;11.536;2023-04-24T04:38:11;11.00;99.90
3816;DHT22;1923;48.154;11.536;2023-04-24T04:40:41;11.00;99.90
3816;DHT22;1923;48.154;11.536;2023-04-24T04:43:09;11.10;99.90
3816;DHT22;1923;48.154;11.536;2023-04-24T04:45:41;11.00;99.90
3816;DHT22;1923;48.154;11.536;2023-04-24T04:48:36;11.10;99.90
3816;DHT22;1923;48.154;11.536;2023-04-24T04:51:07;11.10;99.90
3816;DHT22;1923;48.154;11.536;2023-04-24T04:54:03;11.20;99.90
3816;DHT22;1923;48.154;11.536;2023-04-24T04:56:32;11.20;99.90
3816;DHT22;1923;48.154;11.536;2023-04-24T04:59:14;11.10;99.90
3816;DHT22;1923;48.154;11.536;2023-04-24T05:01:43;11.20;99.90
3816;DHT22;1923;48.154;11.536;2023-04-24T05:04:13;11.20;99.90
3816;DHT22;1923;48.154;11.536;2023-04-24T05:06:55;11.30;99.90
3816;DHT22;1923;48.154;11.536;2023-04-24T05:09:51;11.30;99.90
3816;DHT22;1923;48.154;11.536;2023-04-24T05:12:20;11.40;99.90
3816;DHT22;1923;48.154;11.536;2023-04-24T05:15:14;11.40;99.90
3816;DHT22;1923;48.154;11.536;2023-04-24T05:17:57;11.30;99.90
3816;DHT22;1923;48.154;11.536;2023-04-24T05:20:39;11.30;99.90
3816;DHT22;1923;48.154;11.536;2023-04-24T05:23:08;11.30;99.90
3816;DHT22;1923;48.154;11.536;2023-04-24T05:26:13;11.30;99.90
3816;DHT22;1923;48.154;11.536;2023-04-24T05:29:15;11.40;99.90
3816;DHT22;1923;48.154;11.536;2023-04-24T05:38:13;11.50;99.90
3816;DHT22;1923;48.154;11.536;2023-04-24T05:40:44;11.50;99.90
3816;DHT22;1923;48.154;11.536;2023-04-24T05:43:13;11.50;99.90
3816;DHT22;1923;48.154;11.536;2023-04-24T05:48:52;11.90;99.90
3816;DHT22;1923;48.154;11.536;2023-04-24T05:51:21;12.00;99.90
3816;DHT22;1923;48.154;11.536;2023-04-24T05:54:06;12.00;99.90
3816;DHT22;1923;48.154;11.536;2023-04-24T05:56:35;12.10;99.90
3816;DHT22;1923;48.154;11.536;2023-04-24T05:59:13;12.20;99.90
3816;DHT22;1923;48.154;11.536;2023-04-24T06:01:41;12.20;99.90
3816;DHT22;1923;48.154;11.536;2023-04-24T06:04:11;12.30;99.90
3816;DHT22;1923;48.154;11.536;2023-04-24T06:07:04;12.30;99.90
3816;DHT22;1923;48.154;11.536;2023-04-24T06:09:48;12.40;99.90
3816;DHT22;1923;48.154;11.536;2023-04-24T06:12:33;12.40;99.90
3816;DHT22;1923;48.154;11.536;2023-04-24T06:15:07;12.50;99.90
3816;DHT22;1923;48.154;11.536;2023-04-24T06:17:50;12.60;99.90
3816;DHT22;1923;48.154;11.536;2023-04-24T06:20:22;12.80;99.90
3816;DHT22;1923;48.154;11.536;2023-04-24T06:23:24;12.90;99.90
3816;DHT22;1923;48.154;11.536;2023-04-24T06:25:54;13.20;99.90
3816;DHT22;1923;48.154;11.536;2023-04-24T06:28:43;13.40;99.90
3816;DHT22;1923;48.154;11.536;2023-04-24T06:31:18;13.30;99.90
3816;DHT22;1923;48.154;11.536;2023-04-24T06:34:01;13.40;99.90
3816;DHT22;1923;48.154;11.536;2023-04-24T06:36:38;13.40;99.90
3816;DHT22;1923;48.154;11.536;2023-04-24T06:39:06;13.40;99.90
3816;DHT22;1923;48.154;11.536;2023-04-24T06:42:07;13.40;99.90
3816;DHT22;1923;48.154;11.536;2023-04-24T06:45:26;13.50;99.90
3816;DHT22;1923;48.154;11.536;2023-04-24T06:47:56;13.70;99.90
3816;DHT22;1923;48.154;11.536;2023-04-24T06:50:45;13.80;99.90
3816;DHT22;1923;48.154;11.536;2023-04-24T06:53:14;13.90;99.90
3816;DHT22;1923;48.154;11.536;2023-04-24T06:56:03;14.10;99.90
3816;DHT22;1923;48.154;11.536;2023-04-24T06:58:53;14.30;99.90
3816;DHT22;1923;48.154;11.536;2023-04-24T07:01:38;14.60;99.90
3816;DHT22;1923;48.154;11.536;2023-04-24T07:04:20;14.70;99.90
3816;DHT22;1923;48.154;11.536;2023-04-24T07:06:49;15.00;99.90
3816;DHT22;1923;48.154;11.536;2023-04-24T07:09:17;15.20;99.90
3816;DHT22;1923;48.154;11.536;2023-04-24T07:12:13;15.50;99.90
3816;DHT22;1923;48.154;11.536;2023-04-24T07:14:50;16.00;99.90
3816;DHT22;1923;48.154;11.536;2023-04-24T07:17:34;16.00;99.90
3816;DHT22;1923;48.154;11.536;2023-04-24T07:20:04;16.20;99.90
3816;DHT22;1923;48.154;11.536;2023-04-24T07:22:34;16.20;99.90
3816;DHT22;1923;48.154;11.536;2023-04-24T07:25:04;16.10;99.90
3816;DHT22;1923;48.154;11.536;2023-04-24T07:27:53;15.90;99.90
3816;DHT22;1923;48.154;11.536;2023-04-24T07:30:25;15.80;99.90
3816;DHT22;1923;48.154;11.536;2023-04-24T07:33:13;15.70;99.90
3816;DHT22;1923;48.154;11.536;2023-04-24T07:35:49;15.70;99.90
3816;DHT22;1923;48.154;11.536;2023-04-24T07:38:29;15.70;99.90
3816;DHT22;1923;48.154;11.536;2023-04-24T07:40:57;15.70;99.90
3816;DHT22;1923;48.154;11.536;2023-04-24T07:43:29;15.70;99.90
3816;DHT22;1923;48.154;11.536;2023-04-24T07:46:26;15.40;99.90
3816;DHT22;1923;48.154;11.536;2023-04-24T07:49:09;15.30;99.90
3816;DHT22;1923;48.154;11.536;2023-04-24T07:52:05;15.20;99.90
3816;DHT22;1923;48.154;11.536;2023-04-24T07:54:34;15.00;99.90
3816;DHT22;1923;48.154;11.536;2023-04-24T07:57:36;14.80;99.90
3816;DHT22;1923;48.154;11.536;2023-04-24T08:00:21;14.70;99.90
3816;DHT22;1923;48.154;11.536;2023-04-24T08:02:51;14.60;99.90
3816;DHT22;1923;48.154;11.536;2023-04-24T08:05:19;14.80;99.90
3816;DHT22;1923;48.154;11.536;2023-04-24T08:07:49;15.00;99.90
3816;DHT22;1923;48.154;11.536;2023-04-24T08:10:47;15.10;99.90
3816;DHT22;1923;48.154;11.536;2023-04-24T08:13:16;15.10;99.90
3816;DHT22;1923;48.154;11.536;2023-04-24T08:15:49;15.30;99.90
3816;DHT22;1923;48.154;11.536;2023-04-24T08:18:18;15.30;99.90
3816;DHT22;1923;48.154;11.536;2023-04-24T08:20:50;15.30;99.90
3816;DHT22;1923;48.154;11.536;2023-04-24T08:23:19;15.10;99.90
3816;DHT22;1923;48.154;11.536;2023-04-24T08:25:56;14.80;99.90
3816;DHT22;1923;48.154;11.536;2023-04-24T08:28:58;14.60;99.90
3816;DHT22;1923;48.154;11.536;2023-04-24T08:31:27;14.40;99.90
3816;DHT22;1923;48.154;11.536;2023-04-24T08:34:13;14.20;99.90
3816;DHT22;1923;48.154;11.536;2023-04-24T08:36:55;14.10;99.90
3816;DHT22;1923;48.154;11.536;2023-04-24T08:39:37;14.00;99.90
3816;DHT22;1923;48.154;11.536;2023-04-24T08:42:21;13.70;99.90
3816;DHT22;1923;48.154;11.536;2023-04-24T08:44:49;13.50;99.90
3816;DHT22;1923;48.154;11.536;2023-04-24T08:47:32;13.30;99.90
3816;DHT22;1923;48.154;11.536;2023-04-24T08:50:17;13.30;99.90
3816;DHT22;1923;48.154;11.536;2023-04-24T08:53:05;13.60;99.90
3816;DHT22;1923;48.154;11.536;2023-04-24T08:55:55;13.90;99.90
3816;DHT22;1923;48.154;11.536;2023-04-24T08:58:25;14.40;99.90
3816;DHT22;1923;48.154;11.536;2023-04-24T09:01:08;14.60;99.90
3816;DHT22;1923;48.154;11.536;2023-04-24T09:03:37;14.50;99.90
3816;DHT22;1923;48.154;11.536;2023-04-24T09:06:08;14.40;99.90
3816;DHT22;1923;48.154;11.536;2023-04-24T09:08:54;14.20;99.90
3816;DHT22;1923;48.154;11.536;2023-04-24T09:11:36;14.00;99.90
3816;DHT22;1923;48.154;11.536;2023-04-24T09:14:09;13.80;99.90
3816;DHT22;1923;48.154;11.536;2023-04-24T09:17:15;13.80;99.90
3816;DHT22;1923;48.154;11.536;2023-04-24T09:19:43;14.00;99.90
3816;DHT22;1923;48.154;11.536;2023-04-24T09:22:13;14.20;99.90
3816;DHT22;1923;48.154;11.536;2023-04-24T09:24:41;14.20;99.90
3816;DHT22;1923;48.154;11.536;2023-04-24T09:27:13;14.30;99.90
3816;DHT22;1923;48.154;11.536;2023-04-24T09:29:53;14.40;99.90
3816;DHT22;1923;48.154;11.536;2023-04-24T09:32:23;14.60;99.90
3816;DHT22;1923;48.154;11.536;2023-04-24T09:35:06;14.60;99.90
3816;DHT22;1923;48.154;11.536;2023-04-24T09:37:40;14.60;99.90
3816;DHT22;1923;48.154;11.536;2023-04-24T09:40:13;14.70;99.90
3816;DHT22;1923;48.154;11.536;2023-04-24T09:42:44;14.90;99.90
3816;DHT22;1923;48.154;11.536;2023-04-24T09:45:40;15.00;99.90
3816;DHT22;1923;48.154;11.536;2023-04-24T09:48:30;15.30;99.90
3816;DHT22;1923;48.154;11.536;2023-04-24T09:51:00;15.40;99.90
3816;DHT22;1923;48.154;11.536;2023-04-24T09:53:39;15.60;99.90
3816;DHT22;1923;48.154;11.536;2023-04-24T09:56:35;15.90;99.90
3816;DHT22;1923;48.154;11.536;2023-04-24T09:59:18;16.10;99.90
3816;DHT22;1923;48.154;11.536;2023-04-24T10:01:47;16.10;99.90
3816;DHT22;1923;48.154;11.536;2023-04-24T10:04:17;16.30;99.90
3816;DHT22;1923;48.154;11.536;2023-04-24T10:06:50;16.60;99.90
3816;DHT22;1923;48.154;11.536;2023-04-24T10:09:21;17.10;99.90
3816;DHT22;1923;48.154;11.536;2023-04-24T10:12:04;17.40;99.90
3816;DHT22;1923;48.154;11.536;2023-04-24T10:14:57;17.90;99.90
3816;DHT22;1923;48.154;11.536;2023-04-24T10:17:26;18.10;99.90
3816;DHT22;1923;48.154;11.536;2023-04-24T10:19:58;18.20;99.90
3816;DHT22;1923;48.154;11.536;2023-04-24T10:22:43;18.10;99.90
3816;DHT22;1923;48.154;11.536;2023-04-24T10:25:29;17.80;99.90
3816;DHT22;1923;48.154;11.536;2023-04-24T10:28:14;17.80;99.90
3816;DHT22;1923;48.154;11.536;2023-04-24T10:34:25;17.80;99.90
3816;DHT22;1923;48.154;11.536;2023-04-24T10:37:11;17.90;99.90
3816;DHT22;1923;48.154;11.536;2023-04-24T10:39:40;17.80;99.90
3816;DHT22;1923;48.154;11.536;2023-04-24T10:42:27;17.70;99.90
3816;DHT22;1923;48.154;11.536;2023-04-24T10:45:23;17.70;99.90
3816;DHT22;1923;48.154;11.536;2023-04-24T10:47:53;17.30;99.90
3816;DHT22;1923;48.154;11.536;2023-04-24T10:50:21;17.20;99.90
3816;DHT22;1923;48.154;11.536;2023-04-24T10:53:37;16.90;99.90
3816;DHT22;1923;48.154;11.536;2023-04-24T10:56:06;15.90;99.90
3816;DHT22;1923;48.154;11.536;2023-04-24T11:02:52;14.40;99.90
3816;DHT22;1923;48.154;11.536;2023-04-24T11:10:26;13.50;99.90
3816;DHT22;1923;48.154;11.536;2023-04-24T11:13:21;13.60;99.90
3816;DHT22;1923;48.154;11.536;2023-04-24T11:20:09;14.40;99.90
3816;DHT22;1923;48.154;11.536;2023-04-24T11:23:04;15.20;99.90
3816;DHT22;1923;48.154;11.536;2023-04-24T11:26:05;15.60;99.90
3816;DHT22;1923;48.154;11.536;2023-04-24T11:29:10;16.00;99.90
3816;DHT22;1923;48.154;11.536;2023-04-24T11:32:05;16.10;99.90
3816;DHT22;1923;48.154;11.536;2023-04-24T11:35:08;16.20;99.90
3816;DHT22;1923;48.154;11.536;2023-04-24T11:37:38;16.40;99.90
3816;DHT22;1923;48.154;11.536;2023-04-24T11:40:22;16.40;99.90
3816;DHT22;1923;48.154;11.536;2023-04-24T11:46:43;15.30;99.90
3816;DHT22;1923;48.154;11.536;2023-04-24T11:49:22;15.50;99.90
3816;DHT22;1923;48.154;11.536;2023-04-24T11:52:20;15.30;99.90
3816;DHT22;1923;48.154;11.536;2023-04-24T11:55:04;15.40;99.90
3816;DHT22;1923;48.154;11.536;2023-04-24T11:57:35;15.40;99.90
3816;DHT22;1923;48.154;11.536;2023-04-24T12:00:05;15.60;99.90
3816;DHT22;1923;48.154;11.536;2023-04-24T12:02:49;15.60;99.90
3816;DHT22;1923;48.154;11.536;2023-04-24T12:05:23;15.60;99.90
3816;DHT22;1923;48.154;11.536;2023-04-24T12:08:27;15.80;99.90
3816;DHT22;1923;48.154;11.536;2023-04-24T12:10:55;16.20;99.90
3816;DHT22;1923;48.154;11.536;2023-04-24T12:13:37;16.10;99.90
3816;DHT22;1923;48.154;11.536;2023-04-24T12:16:36;15.90;99.90
3816;DHT22;1923;48.154;11.536;2023-04-24T12:19:51;15.90;99.90
3816;DHT22;1923;48.154;11.536;2023-04-24T12:22:20;16.00;99.90
3816;DHT22;1923;48.154;11.536;2023-04-24T12:25:00;15.90;99.90
3816;DHT22;1923;48.154;11.536;2023-04-24T12:27:30;16.00;99.90
3816;DHT22;1923;48.154;11.536;2023-04-24T12:30:34;16.10;99.90
3816;DHT22;1923;48.154;11.536;2023-04-24T12:33:55;16.30;99.90
3816;DHT22;1923;48.154;11.536;2023-04-24T12:36:37;16.60;99.90
3816;DHT22;1923;48.154;11.536;2023-04-24T12:39:14;16.70;99.90
3816;DHT22;1923;48.154;11.536;2023-04-24T12:42:26;16.90;99.90
3816;DHT22;1923;48.154;11.536;2023-04-24T12:45:09;17.00;99.90
3816;DHT22;1923;48.154;11.536;2023-04-24T12:47:39;17.00;99.90
3816;DHT22;1923;48.154;11.536;2023-04-24T12:50:49;17.10;99.90
3816;DHT22;1923;48.154;11.536;2023-04-24T12:53:45;17.20;99.90
3816;DHT22;1923;48.154;11.536;2023-04-24T12:56:13;17.40;99.90
3816;DHT22;1923;48.154;11.536;2023-04-24T13:01:54;17.70;99.90
3816;DHT22;1923;48.154;11.536;2023-04-24T13:04:50;17.60;99.90
3816;DHT22;1923;48.154;11.536;2023-04-24T13:07:42;17.60;99.90
3816;DHT22;1923;48.154;11.536;2023-04-24T13:10:45;17.60;99.90
3816;DHT22;1923;48.154;11.536;2023-04-24T13:13:31;17.20;99.90
3816;DHT22;1923;48.154;11.536;2023-04-24T13:16:20;16.70;99.90
3816;DHT22;1923;48.154;11.536;2023-04-24T13:19:18;16.10;99.90
3816;DHT22;1923;48.154;11.536;2023-04-24T13:22:28;15.60;99.90
3816;DHT22;1923;48.154;11.536;2023-04-24T13:24:56;15.70;99.90
3816;DHT22;1923;48.154;11.536;2023-04-24T13:27:25;15.90;99.90
3816;DHT22;1923;48.154;11.536;2023-04-24T13:29:59;15.70;99.90
3816;DHT22;1923;48.154;11.536;2023-04-24T13:32:56;15.70;99.90
3816;DHT22;1923;48.154;11.536;2023-04-24T13:35:41;16.10;99.90
3816;DHT22;1923;48.154;11.536;2023-04-24T13:38:38;16.30;99.90
3816;DHT22;1923;48.154;11.536;2023-04-24T13:41:07;16.40;99.90
3816;DHT22;1923;48.154;11.536;2023-04-24T13:43:50;16.60;99.90
3816;DHT22;1923;48.154;11.536;2023-04-24T13:46:34;16.60;99.90
3816;DHT22;1923;48.154;11.536;2023-04-24T13:49:24;16.50;99.90
3816;DHT22;1923;48.154;11.536;2023-04-24T13:51:54;16.50;99.90
3816;DHT22;1923;48.154;11.536;2023-04-24T13:54:39;16.40;99.90
3816;DHT22;1923;48.154;11.536;2023-04-24T13:57:22;16.30;99.90
3816;DHT22;1923;48.154;11.536;2023-04-24T13:59:51;16.20;99.60
3816;DHT22;1923;48.154;11.536;2023-04-24T14:02:20;16.20;99.90
3816;DHT22;1923;48.154;11.536;2023-04-24T14:05:07;16.20;99.60
3816;DHT22;1923;48.154;11.536;2023-04-24T14:07:37;16.30;99.30
3816;DHT22;1923;48.154;11.536;2023-04-24T14:10:06;16.00;98.90
3816;DHT22;1923;48.154;11.536;2023-04-24T14:12:34;15.80;99.90
3816;DHT22;1923;48.154;11.536;2023-04-24T14:15:39;15.60;99.90
3816;DHT22;1923;48.154;11.536;2023-04-24T14:18:21;15.30;99.90
3816;DHT22;1923;48.154;11.536;2023-04-24T14:21:20;15.30;99.90
3816;DHT22;1923;48.154;11.536;2023-04-24T14:24:05;15.40;99.90
3816;DHT22;1923;48.154;11.536;2023-04-24T14:29:59;15.70;99.90
3816;DHT22;1923;48.154;11.536;2023-04-24T14:32:50;15.50;99.90
3816;DHT22;1923;48.154;11.536;2023-04-24T14:35:18;15.70;99.90
3816;DHT22;1923;48.154;11.536;2023-04-24T14:38:15;15.80;99.90
3816;DHT22;1923;48.154;11.536;2023-04-24T14:40:59;15.80;99.90
3816;DHT22;1923;48.154;11.536;2023-04-24T14:43:30;15.90;99.90
3816;DHT22;1923;48.154;11.536;2023-04-24T14:45:59;16.00;99.90
3816;DHT22;1923;48.154;11.536;2023-04-24T14:48:41;16.00;99.20
3816;DHT22;1923;48.154;11.536;2023-04-24T14:51:09;15.80;99.80
3816;DHT22;1923;48.154;11.536;2023-04-24T14:54:05;15.80;99.90
3816;DHT22;1923;48.154;11.536;2023-04-24T14:56:36;15.80;99.40
3816;DHT22;1923;48.154;11.536;2023-04-24T14:59:33;15.70;99.20
3816;DHT22;1923;48.154;11.536;2023-04-24T15:02:15;15.70;99.60
3816;DHT22;1923;48.154;11.536;2023-04-24T15:05:17;15.80;98.40
3816;DHT22;1923;48.154;11.536;2023-04-24T15:08:01;15.70;98.50
3816;DHT22;1923;48.154;11.536;2023-04-24T15:10:33;15.50;98.90
3816;DHT22;1923;48.154;11.536;2023-04-24T15:13:03;15.40;98.10
3816;DHT22;1923;48.154;11.536;2023-04-24T15:15:46;15.40;98.10
3816;DHT22;1923;48.154;11.536;2023-04-24T15:18:31;15.40;98.70
3816;DHT22;1923;48.154;11.536;2023-04-24T15:21:49;15.50;98.60
3816;DHT22;1923;48.154;11.536;2023-04-24T15:24:18;15.60;98.00
3816;DHT22;1923;48.154;11.536;2023-04-24T15:27:08;15.80;97.90
3816;DHT22;1923;48.154;11.536;2023-04-24T15:29:44;15.90;98.20
3816;DHT22;1923;48.154;11.536;2023-04-24T15:32:17;15.90;98.00
3816;DHT22;1923;48.154;11.536;2023-04-24T15:35:14;16.00;97.80
3816;DHT22;1923;48.154;11.536;2023-04-24T15:38:17;15.70;96.00
3816;DHT22;1923;48.154;11.536;2023-04-24T15:41:07;15.70;96.50
3816;DHT22;1923;48.154;11.536;2023-04-24T15:44:19;15.60;96.20
3816;DHT22;1923;48.154;11.536;2023-04-24T15:46:47;15.60;96.20
3816;DHT22;1923;48.154;11.536;2023-04-24T15:49:37;15.50;96.20
3816;DHT22;1923;48.154;11.536;2023-04-24T15:52:08;15.40;96.10
3816;DHT22;1923;48.154;11.536;2023-04-24T15:54:36;15.40;97.00
3816;DHT22;1923;48.154;11.536;2023-04-24T15:57:14;15.50;97.10
3816;DHT22;1923;48.154;11.536;2023-04-24T16:03:38;15.30;96.20
3816;DHT22;1923;48.154;11.536;2023-04-24T16:06:07;15.10;94.70
3816;DHT22;1923;48.154;11.536;2023-04-24T16:08:40;14.90;95.40
3816;DHT22;1923;48.154;11.536;2023-04-24T16:11:08;14.90;96.30
3816;DHT22;1923;48.154;11.536;2023-04-24T16:13:44;14.90;95.90
3816;DHT22;1923;48.154;11.536;2023-04-24T16:16:30;14.90;96.10
3816;DHT22;1923;48.154;11.536;2023-04-24T16:19:00;14.70;95.40
3816;DHT22;1923;48.154;11.536;2023-04-24T16:21:29;14.70;95.20
3816;DHT22;1923;48.154;11.536;2023-04-24T16:24:31;14.50;95.40
3816;DHT22;1923;48.154;11.536;2023-04-24T16:26:59;14.40;96.50
3816;DHT22;1923;48.154;11.536;2023-04-24T16:30:01;14.30;96.60
3816;DHT22;1923;48.154;11.536;2023-04-24T16:32:55;14.30;96.90
3816;DHT22;1923;48.154;11.536;2023-04-24T16:35:39;14.40;97.30
3816;DHT22;1923;48.154;11.536;2023-04-24T16:38:35;14.40;97.40
3816;DHT22;1923;48.154;11.536;2023-04-24T16:41:04;14.20;97.50
3816;DHT22;1923;48.154;11.536;2023-04-24T16:44:03;14.00;97.30
3816;DHT22;1923;48.154;11.536;2023-04-24T16:46:45;13.90;97.60
3816;DHT22;1923;48.154;11.536;2023-04-24T16:50:08;14.00;97.40
3816;DHT22;1923;48.154;11.536;2023-04-24T16:52:38;13.90;97.40
3816;DHT22;1923;48.154;11.536;2023-04-24T16:55:08;14.00;97.40
3816;DHT22;1923;48.154;11.536;2023-04-24T16:57:40;13.90;97.40
3816;DHT22;1923;48.154;11.536;2023-04-24T17:03:09;13.70;97.50
3816;DHT22;1923;48.154;11.536;2023-04-24T17:05:51;13.80;97.80
3816;DHT22;1923;48.154;11.536;2023-04-24T17:14:44;13.80;98.20
3816;DHT22;1923;48.154;11.536;2023-04-24T17:17:12;13.60;97.20
3816;DHT22;1923;48.154;11.536;2023-04-24T17:19:55;13.40;96.70
3816;DHT22;1923;48.154;11.536;2023-04-24T17:22:40;13.10;96.20
3816;DHT22;1923;48.154;11.536;2023-04-24T17:25:20;13.00;96.40
3816;DHT22;1923;48.154;11.536;2023-04-24T17:27:50;13.00;96.80
3816;DHT22;1923;48.154;11.536;2023-04-24T17:30:35;12.90;97.50
3816;DHT22;1923;48.154;11.536;2023-04-24T17:33:03;12.90;97.50
3816;DHT22;1923;48.154;11.536;2023-04-24T17:35:31;12.80;97.20
3816;DHT22;1923;48.154;11.536;2023-04-24T17:38:08;12.70;97.30
3816;DHT22;1923;48.154;11.536;2023-04-24T17:40:43;12.70;97.50
3816;DHT22;1923;48.154;11.536;2023-04-24T17:43:12;12.60;97.80
3816;DHT22;1923;48.154;11.536;2023-04-24T17:46:02;12.60;98.00
3816;DHT22;1923;48.154;11.536;2023-04-24T18:09:36;12.10;98.70
3816;DHT22;1923;48.154;11.536;2023-04-24T18:12:04;12.10;98.90
3816;DHT22;1923;48.154;11.536;2023-04-24T18:14:57;12.10;99.00
3816;DHT22;1923;48.154;11.536;2023-04-24T18:17:40;12.20;99.10
3816;DHT22;1923;48.154;11.536;2023-04-24T18:20:08;12.10;99.30
3816;DHT22;1923;48.154;11.536;2023-04-24T18:22:37;12.10;99.80
3816;DHT22;1923;48.154;11.536;2023-04-24T18:25:24;12.00;99.70